METAR Analyzer

一覧表示

Hello, Guest. (Login)

RJCC/CTS  -  札幌/新千歳

観測日時
2020-10-20 02:30 (UTC) (32分前)
気温
16
露点
5
湿数
11
相対湿度
48%
QNH
1023.7hPa
推定現地気圧
1020.7hPa
推定海面気圧
1023.7hPa
体感温度
10.8
(無風時)
16.8
HI
14.9
気温前日比
-1
体感温度前日比
+1.4
HI前日比
-1.3
水平視程
>10000m
鉛直視程
データなし
雲底高度
6000ft AGL
V/I
VMC (VFR)
RVR
No RVR data
卓越風
3kt from 20° (320° ~ 80°)
ガスト
No gust
降水
報告なし
その他の天気
報告なし
少しの(1/8) 積雲 @ 3000ft AGL / 隙間のある(5/8) 積雲 @ 6000ft AGL

RJCC 200230Z 02003KT 320V080 9999 FEW030 BKN060 16/05 Q1023 RMK 1CU030 5CU060 A3023

RJCO/OKD  -  札幌/丘珠

観測日時
2020-10-20 02:00 (UTC) (62分前)
気温
15
露点
7
湿数
8
相対湿度
58.7%
QNH
1024.7hPa
推定現地気圧
1023.7hPa
推定海面気圧
1024.7hPa
体感温度
8.2
(無風時)
16.3
HI
14.1
気温前日比
+2
体感温度前日比
+5
HI前日比
+1.9
水平視程
>10000m
鉛直視程
データなし
雲底高度
6000ft AGL
V/I
VMC (VFR)
RVR
No RVR data
卓越風
5kt from 360°
ガスト
No gust
降水
報告なし
その他の天気
報告なし
少しの(1/8) 積雲 @ 2000ft AGL / 隙間のある(5/8) 積雲 @ 6000ft AGL

RJCO 200200Z 36005KT 9999 FEW020 BKN060 15/07 Q1025 RMK 1CU020 5CU060 A3026

RJCJ  -  千歳基地

観測日時
2020-10-20 02:00 (UTC) (62分前)
気温
16
露点
5
湿数
11
相対湿度
48%
QNH
1024.7hPa
推定現地気圧
1021.4hPa
推定海面気圧
1024.7hPa
体感温度
9.3
(無風時)
16.8
HI
14.9
気温前日比
+1
体感温度前日比
+2.7
HI前日比
+0.8
水平視程
>10000m
鉛直視程
データなし
雲底高度
7000ft AGL
V/I
VMC (VFR)
RVR
No RVR data
卓越風
5kt from 180°
ガスト
No gust
降水
報告なし
その他の天気
報告なし
少しの(1/8) 積雲 @ 3000ft AGL / 散在する(3/8) 層積雲 @ 6000ft AGL / 隙間のある(5/8) 高積雲 @ 7000ft AGL

RJCJ 200200Z 18005KT 9999 FEW030 SCT060 BKN070 16/05 Q1024 RMK 1CU030 3SC060 5AC070 A3026

株式会社マネーパートナーズ 【Manepa Card】

RJCW/WKJ  -  稚内

観測日時
2020-10-20 02:00 (UTC) (62分前)
気温
10
露点
2
湿数
8
相対湿度
57.5%
QNH
1024hPa
推定現地気圧
1023.0hPa
推定海面気圧
1024.0hPa
体感温度
1.3
(無風時)
12.6
HI
8.6
気温前日比
-1
体感温度前日比
+0.7
HI前日比
-0.9
水平視程
>10000m
鉛直視程
データなし
雲底高度
No dense clouds
V/I
VMC (VFR)
RVR
No RVR data
卓越風
7kt from 40°
ガスト
No gust
降水
報告なし
その他の天気
報告なし
少しの雲 @ 3500ft AGL

RJCW 200200Z 04007KT 9999 FEW035 10/02 Q1024

RJER/RIS  -  利尻

観測日時
2020-10-20 02:00 (UTC) (62分前)
気温
12
露点
1
湿数
11
相対湿度
46.8%
QNH
1024.0hPa
推定現地気圧
1020.2hPa
推定海面気圧
1024.0hPa
体感温度
5.1
(無風時)
14
HI
10.5
気温前日比
±0
体感温度前日比
+1.6
HI前日比
+0.2
水平視程
>10000m
鉛直視程
データなし
雲底高度
No dense clouds
V/I
VMC (VFR)
RVR
No RVR data
卓越風
5kt from 30°
ガスト
No gust
降水
報告なし
その他の天気
報告なし
少しの雲 @ 2000ft AGL

RJER 200200Z 03005KT 9999 FEW020 12/01 Q1024 RMK A3024

RJEC/AKJ  -  旭川

観測日時
2020-10-20 02:00 (UTC) (62分前)
気温
13
露点
-3
湿数
16
相対湿度
32.7%
QNH
1023hPa
推定現地気圧
997.8hPa
推定海面気圧
1023.1hPa
体感温度
7
(無風時)
14.5
HI
11.2
気温前日比
+1
体感温度前日比
+4.9
HI前日比
+0.6
水平視程
>10000m
鉛直視程
データなし
雲底高度
No dense clouds
V/I
VMC (VFR)
RVR
No RVR data
卓越風
4kt from VRB
ガスト
No gust
降水
報告なし
その他の天気
報告なし
少しの雲 @ 2000ft AGL / 散在する雲 @ 5000ft AGL

RJEC 200200Z VRB04KT 9999 FEW020 SCT050 13/M03 Q1023

RJCA/AKJ  -  旭川駐屯地

観測日時
2020-10-20 02:00 (UTC) (62分前)
気温
13
露点
9
湿数
4
相対湿度
76.6%
QNH
1024.4hPa
推定現地気圧
1010.5hPa
推定海面気圧
1024.4hPa
体感温度
9
(無風時)
15.1
HI
12.4
気温前日比
±0
体感温度前日比
+2.9
HI前日比
+0.6
水平視程
>10000m
鉛直視程
データなし
雲底高度
7000ft AGL
V/I
VMC (VFR)
RVR
No RVR data
卓越風
2kt from VRB
ガスト
No gust
降水
報告なし
その他の天気
報告なし
少しの(2/8) 積雲 @ 3000ft AGL / 隙間のある(5/8) 高積雲 @ 7000ft AGL

RJCA 200200Z VRB02KT 9999 FEW030 BKN070 13/09 Q1024 RMK 2CU030 5AC070 A3025

RJEB/MBE  -  紋別

観測日時
2020-10-20 02:00 (UTC) (62分前)
気温
11
露点
6
湿数
5
相対湿度
71.2%
QNH
1024hPa
推定現地気圧
1021.8hPa
推定海面気圧
1024.0hPa
体感温度
0.2
(無風時)
13.4
HI
10
気温前日比
-4
体感温度前日比
-8.7
HI前日比
-4.1
水平視程
>10000m
鉛直視程
データなし
雲底高度
No dense clouds
V/I
VMC (VFR)
RVR
No RVR data
卓越風
11kt from 340°
ガスト
No gust
降水
弱いしゅう雨性の雨
その他の天気
報告なし
少しの雲 @ 2000ft AGL / 散在する雲 @ 6000ft AGL

RJEB 200200Z 34011KT 9999 -SHRA FEW020 SCT060 11/06 Q1024

RJCM/MMB  -  女満別

観測日時
2020-10-20 02:00 (UTC) (62分前)
気温
13
露点
1
湿数
12
相対湿度
43.9%
QNH
1023hPa
推定現地気圧
1019.0hPa
推定海面気圧
1023.0hPa
体感温度
5.5
(無風時)
14.7
HI
11.5
気温前日比
-3
体感温度前日比
-5.3
HI前日比
-3.2
水平視程
>10000m
鉛直視程
データなし
雲底高度
8000ft AGL
V/I
VMC (VFR)
RVR
No RVR data
卓越風
6kt from 310° (240° ~ 10°)
ガスト
No gust
降水
報告なし
その他の天気
報告なし
少しの雲 @ 4000ft AGL / 散在する雲 @ 6000ft AGL / 隙間のある雲 @ 8000ft AGL

RJCM 200200Z 31006KT 240V010 9999 FEW040 SCT060 BKN080 13/01 Q1023

RJCK/KUH  -  釧路

観測日時
2020-10-20 02:00 (UTC) (62分前)
気温
14
露点
5
湿数
9
相対湿度
54.6%
QNH
1022hPa
推定現地気圧
1010.6hPa
推定海面気圧
1022.1hPa
体感温度
5.5
(無風時)
15.5
HI
12.9
気温前日比
-3
体感温度前日比
-3.8
HI前日比
-2.9
水平視程
>10000m
鉛直視程
データなし
雲底高度
7000ft AGL
V/I
VMC (VFR)
RVR
No RVR data
卓越風
8kt from 200° (150° ~ 290°)
ガスト
No gust
降水
報告なし
その他の天気
報告なし
少しの雲 @ 5000ft AGL / 隙間のある雲 @ 7000ft AGL

RJCK 200200Z 20008KT 150V290 9999 FEW050 BKN070 14/05 Q1022

RJCB/OBO  -  帯広

観測日時
2020-10-20 02:00 (UTC) (62分前)
気温
15
露点
2
湿数
13
相対湿度
41.4%
QNH
1023hPa
推定現地気圧
1005.1hPa
推定海面気圧
1023.0hPa
体感温度
5.1
(無風時)
16
HI
13.6
気温前日比
-1
体感温度前日比
-4.2
HI前日比
-1.3
水平視程
>10000m
鉛直視程
データなし
雲底高度
No dense clouds
V/I
VMC (VFR)
RVR
No RVR data
卓越風
14kt from 330°
ガスト
No gust
降水
報告なし
その他の天気
報告なし
少しの雲 @ 5000ft AGL

RJCB 200200Z 33014KT 9999 FEW050 15/02 Q1023

RJCN/SHB  -  中標津

観測日時
2020-10-20 02:00 (UTC) (62分前)
気温
14
露点
0
湿数
14
相対湿度
38.2%
QNH
1022hPa
推定現地気圧
1014.2hPa
推定海面気圧
1022.1hPa
体感温度
5
(無風時)
15.2
HI
12.5
気温前日比
-5
体感温度前日比
-6.8
HI前日比
-5.4
水平視程
>10000m
鉛直視程
データなし
雲底高度
No dense clouds
V/I
VMC (VFR)
RVR
No RVR data
卓越風
10kt from 350° (290° ~ 30°)
ガスト
No gust
降水
報告なし
その他の天気
報告なし
少しの雲 @ 3000ft AGL / 散在する雲 @ 6000ft AGL

RJCN 200200Z 35010KT 290V030 9999 FEW030 SCT060 14/00 Q1022

RJCT  -  帯広駐屯地/十勝飛行場

観測日時
2020-10-20 02:26 (UTC) (36分前)
気温
16
露点
1
湿数
15
相対湿度
36.1%
QNH
1024.0hPa
推定現地気圧
1013.6hPa
推定海面気圧
1023.9hPa
体感温度
7.5
(無風時)
16.5
HI
14.6
気温前日比
データなし
体感温度前日比
データなし
HI前日比
データなし
水平視程
>10000m
鉛直視程
データなし
雲底高度
No dense clouds
V/I
VMC (VFR)
RVR
No RVR data
卓越風
9kt from 330°
ガスト
20kt
降水
報告なし
その他の天気
報告なし
少しの(2/8) 積雲 @ 6000ft AGL

RJCT 200226Z 33009G20KT 9999 FEW060 16/01 Q1024 RMK 2CU060 A3024

RJCH/HKD  -  函館

観測日時
2020-10-20 02:00 (UTC) (62分前)
気温
16
露点
8
湿数
8
相対湿度
59%
QNH
1025hPa
推定現地気圧
1019.4hPa
推定海面気圧
1025.0hPa
体感温度
8.2
(無風時)
17.1
HI
15.2
気温前日比
-1
体感温度前日比
-1.2
HI前日比
-1
水平視程
>10000m
鉛直視程
データなし
雲底高度
No dense clouds
V/I
VMC (VFR)
RVR
No RVR data
卓越風
7kt from 230°
ガスト
No gust
降水
報告なし
その他の天気
報告なし
少しの雲 @ 2000ft AGL / 散在する雲 @ 4000ft AGL

RJCH 200200Z 23007KT 9999 FEW020 SCT040 16/08 Q1025

RJEO/OIR  -  奥尻

観測日時
2020-10-20 02:00 (UTC) (62分前)
気温
16
露点
7
湿数
9
相対湿度
55.1%
QNH
1025.7hPa
推定現地気圧
1019.8hPa
推定海面気圧
1025.7hPa
体感温度
7.5
(無風時)
17
HI
15.1
気温前日比
±0
体感温度前日比
-0.7
HI前日比
±0
水平視程
>10000m
鉛直視程
データなし
雲底高度
No dense clouds
V/I
VMC (VFR)
RVR
No RVR data
卓越風
9kt from 300°
ガスト
No gust
降水
報告なし
その他の天気
報告なし
少しの雲 @ 3000ft AGL

RJEO 200200Z 30009KT 9999 FEW030 16/07 Q1025 RMK A3029

11.7msec